Trigg Furnace, Kentucky
Current Conditions -  °F | °C
As of 9:58 AM on Thursday 27 Nov 2014 (Local Time) from KHOP Reporting Station
Overcast Overcast  
Wind Chill: 25°   Ceiling: 2200
Heat Index: 35°   Visibility: 10mi
Dew Point: 28°   Wind: 15mph
Humidity: 77%   Direction: 320°NW
Pressure: 30.43"   Gusts: NA
Location:  36.8031°N, 87.8159°W
Report Text: KHOP 271558Z AUTO 32013KT 10SM OVC022 01/M02 A3043 RMK AO2 OVC V BKN SLP311 T00141023
Loading
Personal Weather Stations






























Interactive Weather Map New forecast layout! Learn more

10-Day Weather Forecast

Advertisements
Track Severe Weather on mobile